Green Hill, Rhode Island
Current Conditions -  °F | °C
As of 2:53 AM on Monday 24 Nov 2014 (Local Time) from KWST Reporting Station
Overcast Overcast  
Wind Chill: 56°   Ceiling: 3300
Heat Index: 56°   Visibility: 10mi
Dew Point: 53°   Wind: 10mph
Humidity: 90%   Direction: 130°SE
Pressure: 29.99"   Gusts: NA
Location:  41.4261°N, 71.5353°W
Report Text: KWST 240753Z AUTO 13009KT 10SM OVC033 13/12 A2999 RMK AO2 SLP154 T01330117
Loading
Personal Weather Stations






























Interactive Weather Map New forecast layout! Learn more

10-Day Weather Forecast

Advertisements
Track Severe Weather on mobile